^^
TXWeather Station Historical Data
Daily Summary for April 17, 2022 Units:  English    Metric   Both
Daily Weekly Monthly Yearly Custom
  High: Low: Average:
Temperature: 89.0 °F 71.0 °F 78.6 °F
Dew Point: 75.0 °F 68.0 °F 70.9 °F
Humidity: 91% 59% 78%
Wind Speed: 13mph 0mph 4.3mph
Wind Gust: 13mph - -
Wind- - South
Pressure: 30.0 in 29.9 in -
Precipitation: 0.000 in    
Historical Graphs
 
 
Tabular Data for April 17, 2022
Time Temperature Dew Point Pressure Wind Wind Speed Wind Gust Humidity Rainfall Rate (Hourly) solar
00:04 75.0 °F 69.0 °F 29.9 in SSE 6 mph 6 mph 84% 0.000 in 0.00 W/m2
00:09 75.0 °F 69.0 °F 29.9 in SSE 1 mph 6 mph 84% 0.000 in 0.00 W/m2
00:14 75.0 °F 69.0 °F 29.9 in SSE 2 mph 2 mph 84% 0.000 in 0.00 W/m2
00:19 75.0 °F 69.0 °F 29.9 in SSE 4 mph 4 mph 84% 0.000 in 0.00 W/m2
00:24 75.0 °F 69.0 °F 30.0 in SSE 3 mph 4 mph 84% 0.000 in 0.00 W/m2
00:29 74.0 °F 69.0 °F 29.9 in SSE 3 mph 3 mph 85% 0.000 in 0.00 W/m2
00:34 74.0 °F 69.0 °F 29.9 in SSE 2 mph 3 mph 85% 0.000 in 0.00 W/m2
00:39 74.0 °F 69.0 °F 29.9 in SSE 3 mph 5 mph 85% 0.000 in 0.00 W/m2
00:44 74.0 °F 69.0 °F 29.9 in SE 3 mph 5 mph 85% 0.000 in 0.00 W/m2
00:49 74.0 °F 69.0 °F 30.0 in SE 1 mph 1 mph 85% 0.000 in 0.00 W/m2
00:54 74.0 °F 69.0 °F 30.0 in SE 1 mph 1 mph 85% 0.000 in 0.00 W/m2
00:59 74.0 °F 69.0 °F 30.0 in SE 3 mph 3 mph 85% 0.000 in 0.00 W/m2
01:04 74.0 °F 69.0 °F 30.0 in SE 3 mph 3 mph 85% 0.000 in 0.00 W/m2
01:09 73.0 °F 69.0 °F 30.0 in SE 1 mph 3 mph 85% 0.000 in 0.00 W/m2
01:14 73.0 °F 68.0 °F 30.0 in SE 1 mph 1 mph 85% 0.000 in 0.00 W/m2
01:19 73.0 °F 68.0 °F 30.0 in SE 2 mph 2 mph 85% 0.000 in 0.00 W/m2
01:24 73.0 °F 68.0 °F 29.9 in SE 1 mph 2 mph 85% 0.000 in 0.00 W/m2
01:29 73.0 °F 68.0 °F 29.9 in Calm   2 mph 85% 0.000 in 0.00 W/m2
01:34 73.0 °F 68.0 °F 29.9 in SE 1 mph 2 mph 85% 0.000 in 0.00 W/m2
01:39 73.0 °F 68.0 °F 29.9 in SE 1 mph 1 mph 86% 0.000 in 0.00 W/m2
01:44 73.0 °F 68.0 °F 29.9 in SE 2 mph 2 mph 86% 0.000 in 0.00 W/m2
01:49 73.0 °F 68.0 °F 29.9 in SE 1 mph 2 mph 86% 0.000 in 0.00 W/m2
01:54 73.0 °F 68.0 °F 29.9 in SE 2 mph 2 mph 86% 0.000 in 0.00 W/m2
01:59 73.0 °F 68.0 °F 29.9 in SE 2 mph 3 mph 87% 0.000 in 0.00 W/m2
02:04 73.0 °F 68.0 °F 29.9 in SE 2 mph 3 mph 87% 0.000 in 0.00 W/m2
02:09 72.0 °F 68.0 °F 29.9 in SE 2 mph 2 mph 87% 0.000 in 0.00 W/m2
02:14 72.0 °F 68.0 °F 29.9 in SE 1 mph 2 mph 87% 0.000 in 0.00 W/m2
02:19 72.0 °F 68.0 °F 29.9 in Calm     87% 0.000 in 0.00 W/m2
02:24 72.0 °F 68.0 °F 29.9 in SE 1 mph 2 mph 87% 0.000 in 0.00 W/m2
02:29 72.0 °F 68.0 °F 29.9 in SE 2 mph 2 mph 87% 0.000 in 0.00 W/m2
02:34 72.0 °F 68.0 °F 29.9 in SE 3 mph 4 mph 87% 0.000 in 0.00 W/m2
02:39 72.0 °F 68.0 °F 29.9 in SE 3 mph 4 mph 87% 0.000 in 0.00 W/m2
02:44 72.0 °F 68.0 °F 29.9 in SE 3 mph 3 mph 88% 0.000 in 0.00 W/m2
02:49 72.0 °F 68.0 °F 29.9 in SE 1 mph 3 mph 88% 0.000 in 0.00 W/m2
02:54 72.0 °F 68.0 °F 29.9 in SE 2 mph 2 mph 88% 0.000 in 0.00 W/m2
02:59 72.0 °F 68.0 °F 29.9 in SE 1 mph 2 mph 88% 0.000 in 0.00 W/m2
03:04 72.0 °F 68.0 °F 29.9 in SE 1 mph 2 mph 88% 0.000 in 0.00 W/m2
03:09 72.0 °F 68.0 °F 29.9 in SE 2 mph 2 mph 88% 0.000 in 0.00 W/m2
03:14 72.0 °F 68.0 °F 29.9 in SE 2 mph 2 mph 88% 0.000 in 0.00 W/m2
03:19 72.0 °F 68.0 °F 29.9 in SE 1 mph 2 mph 88% 0.000 in 0.00 W/m2
03:24 72.0 °F 68.0 °F 29.9 in SE 1 mph 1 mph 88% 0.000 in 0.00 W/m2
03:29 72.0 °F 68.0 °F 29.9 in SE 1 mph 1 mph 88% 0.000 in 0.00 W/m2
03:34 71.0 °F 68.0 °F 29.9 in SE 1 mph 1 mph 88% 0.000 in 0.00 W/m2
03:39 71.0 °F 68.0 °F 29.9 in SE 1 mph 1 mph 88% 0.000 in 0.00 W/m2
03:44 71.0 °F 68.0 °F 29.9 in SE 2 mph 2 mph 89% 0.000 in 0.00 W/m2
03:49 71.0 °F 68.0 °F 29.9 in SE 2 mph 2 mph 89% 0.000 in 0.00 W/m2
03:54 71.0 °F 68.0 °F 29.9 in SE 2 mph 2 mph 89% 0.000 in 0.00 W/m2
03:59 71.0 °F 68.0 °F 29.9 in SE 1 mph 1 mph 89% 0.000 in 0.00 W/m2
04:04 72.0 °F 68.0 °F 29.9 in SE 1 mph 1 mph 89% 0.000 in 0.00 W/m2
04:09 72.0 °F 68.0 °F 29.9 in SE 1 mph 1 mph 89% 0.000 in 0.00 W/m2
04:14 72.0 °F 68.0 °F 29.9 in SE 1 mph 1 mph 89% 0.000 in 0.00 W/m2
04:19 72.0 °F 68.0 °F 29.9 in SE 4 mph 4 mph 89% 0.000 in 0.00 W/m2
04:24 72.0 °F 69.0 °F 29.9 in SSE 4 mph 4 mph 90% 0.000 in 0.00 W/m2
04:29 72.0 °F 69.0 °F 29.9 in SSE 4 mph 4 mph 90% 0.000 in 0.00 W/m2
04:34 72.0 °F 69.0 °F 29.9 in SSE 2 mph 4 mph 90% 0.000 in 0.00 W/m2
04:39 72.0 °F 69.0 °F 29.9 in SSE 5 mph 5 mph 90% 0.000 in 0.00 W/m2
04:44 72.0 °F 69.0 °F 29.9 in South 5 mph 5 mph 90% 0.000 in 0.00 W/m2
04:49 72.0 °F 69.0 °F 29.9 in South 5 mph 5 mph 90% 0.000 in 0.00 W/m2
04:54 72.0 °F 69.0 °F 29.9 in SSE 4 mph 5 mph 90% 0.000 in 0.00 W/m2
04:59 72.0 °F 69.0 °F 29.9 in South 4 mph 4 mph 90% 0.000 in 0.00 W/m2
05:04 72.0 °F 69.0 °F 29.9 in South 1 mph 1 mph 90% 0.000 in 0.00 W/m2
05:09 72.0 °F 69.0 °F 29.9 in South 2 mph 2 mph 90% 0.000 in 0.00 W/m2
05:14 72.0 °F 69.0 °F 29.9 in South 2 mph 3 mph 90% 0.000 in 0.00 W/m2
05:19 72.0 °F 69.0 °F 29.9 in South 4 mph 5 mph 90% 0.000 in 0.00 W/m2
05:24 72.0 °F 69.0 °F 29.9 in SSE 4 mph 5 mph 90% 0.000 in 0.00 W/m2
05:29 72.0 °F 69.0 °F 29.9 in SSE 2 mph 4 mph 90% 0.000 in 0.00 W/m2
05:34 72.0 °F 69.0 °F 29.9 in SSE 5 mph 5 mph 90% 0.000 in 0.00 W/m2
05:39 72.0 °F 69.0 °F 29.9 in South 4 mph 4 mph 90% 0.000 in 0.00 W/m2
05:44 72.0 °F 69.0 °F 29.9 in South 3 mph 4 mph 90% 0.000 in 0.00 W/m2
05:49 72.0 °F 69.0 °F 29.9 in South 2 mph 3 mph 90% 0.000 in 0.00 W/m2
05:54 72.0 °F 69.0 °F 29.9 in South 2 mph 2 mph 90% 0.000 in 0.00 W/m2
05:59 72.0 °F 69.0 °F 29.9 in South 1 mph 2 mph 90% 0.000 in 0.00 W/m2
06:04 72.0 °F 69.0 °F 29.9 in South 2 mph 2 mph 90% 0.000 in 0.00 W/m2
06:09 72.0 °F 69.0 °F 29.9 in South 1 mph 2 mph 90% 0.000 in 0.00 W/m2
06:14 72.0 °F 69.0 °F 29.9 in South 3 mph 4 mph 90% 0.000 in 0.00 W/m2
06:19 72.0 °F 69.0 °F 29.9 in South 3 mph 4 mph 90% 0.000 in 0.00 W/m2
06:24 72.0 °F 69.0 °F 29.9 in SSE 3 mph 4 mph 90% 0.000 in 0.00 W/m2
06:29 72.0 °F 69.0 °F 29.9 in SSE 3 mph 3 mph 90% 0.000 in 0.00 W/m2
06:34 72.0 °F 69.0 °F 29.9 in SSE 3 mph 3 mph 90% 0.000 in 0.00 W/m2
06:39 72.0 °F 69.0 °F 29.9 in SSE 3 mph 3 mph 90% 0.000 in 0.00 W/m2
06:44 72.0 °F 69.0 °F 29.9 in SSE 3 mph 4 mph 90% 0.000 in 0.00 W/m2
06:49 72.0 °F 69.0 °F 29.9 in SSE 2 mph 2 mph 90% 0.000 in 0.00 W/m2
06:54 72.0 °F 69.0 °F 30.0 in SSE 2 mph 2 mph 90% 0.000 in 0.00 W/m2
06:59 72.0 °F 69.0 °F 30.0 in SSE 5 mph 5 mph 90% 0.000 in 7.00 W/m2
07:04 72.0 °F 69.0 °F 29.9 in SSE 4 mph 4 mph 90% 0.000 in 12.00 W/m2
07:09 72.0 °F 69.0 °F 29.9 in SSE 5 mph 7 mph 90% 0.000 in 14.00 W/m2
07:14 72.0 °F 69.0 °F 29.9 in SSE 4 mph 7 mph 90% 0.000 in 21.00 W/m2
07:19 72.0 °F 69.0 °F 29.9 in SSE 4 mph 4 mph 90% 0.000 in 26.00 W/m2
07:24 72.0 °F 69.0 °F 29.9 in SSE 2 mph 2 mph 90% 0.000 in 33.00 W/m2
07:29 72.0 °F 69.0 °F 29.9 in SSE 2 mph 3 mph 90% 0.000 in 35.00 W/m2
07:34 72.0 °F 69.0 °F 29.9 in SSE 4 mph 4 mph 90% 0.000 in 42.00 W/m2
07:39 72.0 °F 69.0 °F 29.9 in SSE 5 mph 5 mph 90% 0.000 in 58.00 W/m2
07:44 72.0 °F 69.0 °F 29.9 in SSE 3 mph 5 mph 90% 0.000 in 60.00 W/m2
07:49 72.0 °F 69.0 °F 29.9 in SSE 3 mph 3 mph 90% 0.000 in 56.00 W/m2
07:54 72.0 °F 69.0 °F 29.9 in SSE 3 mph 3 mph 90% 0.000 in 62.00 W/m2
07:59 72.0 °F 69.0 °F 30.0 in SSE 3 mph 3 mph 90% 0.000 in 63.00 W/m2
08:04 73.0 °F 69.0 °F 30.0 in SSE 3 mph 5 mph 90% 0.000 in 76.00 W/m2
08:09 73.0 °F 70.0 °F 30.0 in SSE 4 mph 5 mph 90% 0.000 in 76.00 W/m2
08:14 73.0 °F 70.0 °F 30.0 in SSE 4 mph 4 mph 91% 0.000 in 121.00 W/m2
08:19 73.0 °F 70.0 °F 30.0 in South 3 mph 4 mph 91% 0.000 in 97.00 W/m2
08:24 73.0 °F 70.0 °F 30.0 in SSE 3 mph 4 mph 91% 0.000 in 102.00 W/m2
08:29 73.0 °F 71.0 °F 30.0 in SSE 6 mph 6 mph 91% 0.000 in 153.00 W/m2
08:34 74.0 °F 71.0 °F 30.0 in SSE 4 mph 6 mph 91% 0.000 in 195.00 W/m2
08:39 74.0 °F 71.0 °F 30.0 in South 3 mph 3 mph 91% 0.000 in 199.00 W/m2
08:44 74.0 °F 71.0 °F 30.0 in South 6 mph 6 mph 91% 0.000 in 209.00 W/m2
08:49 74.0 °F 71.0 °F 30.0 in South 6 mph 6 mph 91% 0.000 in 178.00 W/m2
08:54 74.0 °F 71.0 °F 30.0 in South 4 mph 6 mph 90% 0.000 in 155.00 W/m2
09:04 74.0 °F 71.0 °F 30.0 in SSE 6 mph 6 mph 90% 0.000 in 295.00 W/m2
09:09 75.0 °F 71.0 °F 30.0 in SSE 6 mph 6 mph 90% 0.000 in 295.00 W/m2
09:14 75.0 °F 72.0 °F 30.0 in South 5 mph 6 mph 90% 0.000 in 274.00 W/m2
09:19 75.0 °F 72.0 °F 30.0 in SSE 6 mph 7 mph 90% 0.000 in 341.00 W/m2
09:24 75.0 °F 72.0 °F 30.0 in SSE 6 mph 6 mph 90% 0.000 in 227.00 W/m2
09:29 75.0 °F 72.0 °F 30.0 in SSE 8 mph 8 mph 90% 0.000 in 352.00 W/m2
09:34 76.0 °F 72.0 °F 30.0 in South 6 mph 8 mph 89% 0.000 in 292.00 W/m2
09:39 76.0 °F 73.0 °F 30.0 in South 8 mph 8 mph 89% 0.000 in 290.00 W/m2
09:44 76.0 °F 73.0 °F 30.0 in South 7 mph 8 mph 89% 0.000 in 506.00 W/m2
09:49 77.0 °F 73.0 °F 30.0 in South 7 mph 7 mph 88% 0.000 in 503.00 W/m2
09:54 77.0 °F 73.0 °F 30.0 in SSW 5 mph 8 mph 87% 0.000 in 220.00 W/m2
09:59 77.0 °F 72.0 °F 30.0 in South 7 mph 7 mph 86% 0.000 in 207.00 W/m2
10:04 77.0 °F 72.0 °F 30.0 in South 8 mph 8 mph 85% 0.000 in 276.00 W/m2
10:09 78.0 °F 72.0 °F 30.0 in South 10 mph 10 mph 84% 0.000 in 276.00 W/m2
10:14 78.0 °F 72.0 °F 30.0 in SSE 6 mph 10 mph 83% 0.000 in 232.00 W/m2
10:19 78.0 °F 72.0 °F 30.0 in SSE 8 mph 8 mph 82% 0.000 in 362.00 W/m2
10:24 78.0 °F 73.0 °F 30.0 in South 7 mph 7 mph 82% 0.000 in 469.00 W/m2
10:29 79.0 °F 72.0 °F 30.0 in South 7 mph 7 mph 81% 0.000 in 244.00 W/m2
10:34 79.0 °F 72.0 °F 30.0 in South 6 mph 6 mph 80% 0.000 in 220.00 W/m2
10:39 79.0 °F 72.0 °F 30.0 in South 6 mph 6 mph 79% 0.000 in 250.00 W/m2
10:44 79.0 °F 72.0 °F 30.0 in South 6 mph 6 mph 78% 0.000 in 241.00 W/m2
10:49 79.0 °F 72.0 °F 30.0 in SSW 3 mph 6 mph 78% 0.000 in 272.00 W/m2
10:54 80.0 °F 72.0 °F 30.0 in SSE 5 mph 8 mph 78% 0.000 in 334.00 W/m2
10:59 80.0 °F 72.0 °F 30.0 in South 6 mph 9 mph 78% 0.000 in 334.00 W/m2
11:04 80.0 °F 71.0 °F 30.0 in South 7 mph 10 mph 76% 0.000 in 239.00 W/m2
11:09 80.0 °F 71.0 °F 30.0 in South 7 mph 8 mph 75% 0.000 in 311.00 W/m2
11:14 80.0 °F 71.0 °F 30.0 in South 6 mph 8 mph 74% 0.000 in 381.00 W/m2
11:19 80.0 °F 71.0 °F 30.0 in South 6 mph 6 mph 75% 0.000 in 381.00 W/m2
11:24 80.0 °F 71.0 °F 30.0 in SSW 4 mph 7 mph 74% 0.000 in 278.00 W/m2
11:29 80.0 °F 71.0 °F 30.0 in South 8 mph 8 mph 74% 0.000 in 315.00 W/m2
11:34 81.0 °F 72.0 °F 30.0 in South 6 mph 8 mph 74% 0.000 in 568.00 W/m2
11:39 82.0 °F 73.0 °F 30.0 in South 4 mph 7 mph 75% 0.000 in 568.00 W/m2
11:44 82.0 °F 72.0 °F 30.0 in South 8 mph 9 mph 72% 0.000 in 424.00 W/m2
11:49 82.0 °F 72.0 °F 30.0 in South 7 mph 9 mph 71% 0.000 in 332.00 W/m2
11:54 82.0 °F 72.0 °F 30.0 in South 6 mph 7 mph 72% 0.000 in 308.00 W/m2
11:59 83.0 °F 73.0 °F 30.0 in South 5 mph 7 mph 73% 0.000 in 302.00 W/m2
12:09 83.0 °F 72.0 °F 30.0 in South 6 mph 8 mph 69% 0.000 in 675.00 W/m2
12:14 84.0 °F 73.0 °F 30.0 in South 9 mph 9 mph 71% 0.000 in 443.00 W/m2
12:19 84.0 °F 72.0 °F 30.0 in South 6 mph 9 mph 68% 0.000 in 359.00 W/m2
12:24 83.0 °F 71.0 °F 30.0 in South 7 mph 10 mph 68% 0.000 in 265.00 W/m2
12:29 83.0 °F 71.0 °F 30.0 in SSE 6 mph 8 mph 68% 0.000 in 318.00 W/m2
12:34 83.0 °F 72.0 °F 30.0 in South 6 mph 6 mph 69% 0.000 in 318.00 W/m2
12:39 83.0 °F 71.0 °F 30.0 in SSW 8 mph 8 mph 68% 0.000 in 227.00 W/m2
12:44 83.0 °F 72.0 °F 30.0 in SSW 4 mph 8 mph 69% 0.000 in 227.00 W/m2
12:49 83.0 °F 71.0 °F 30.0 in South 5 mph 7 mph 69% 0.000 in 323.00 W/m2
12:54 83.0 °F 72.0 °F 30.0 in SSW 4 mph 5 mph 70% 0.000 in 338.00 W/m2
12:59 83.0 °F 72.0 °F 30.0 in South 5 mph 5 mph 70% 0.000 in 315.00 W/m2
13:04 83.0 °F 72.0 °F 30.0 in South 5 mph 5 mph 70% 0.000 in 468.00 W/m2
13:09 84.0 °F 73.0 °F 30.0 in South 5 mph 7 mph 70% 0.000 in 469.00 W/m2
13:14 84.0 °F 73.0 °F 30.0 in SSE 8 mph 8 mph 69% 0.000 in 469.00 W/m2
13:19 85.0 °F 74.0 °F 29.9 in SSE 8 mph 10 mph 69% 0.000 in 475.00 W/m2
13:24 85.0 °F 74.0 °F 29.9 in South 9 mph 9 mph 69% 0.000 in 504.00 W/m2
13:29 85.0 °F 73.0 °F 29.9 in South 10 mph 10 mph 66% 0.000 in 401.00 W/m2
13:34 85.0 °F 72.0 °F 29.9 in SSW 8 mph 10 mph 67% 0.000 in 341.00 W/m2
13:39 84.0 °F 72.0 °F 29.9 in SSW 7 mph 10 mph 68% 0.000 in 311.00 W/m2
13:44 84.0 °F 72.0 °F 29.9 in SSE 8 mph 12 mph 68% 0.000 in 410.00 W/m2
13:49 84.0 °F 73.0 °F 29.9 in South 11 mph 12 mph 68% 0.000 in 387.00 W/m2
13:54 85.0 °F 73.0 °F 29.9 in South 7 mph 9 mph 68% 0.000 in 867.00 W/m2
13:59 85.0 °F 73.0 °F 29.9 in South 10 mph 10 mph 67% 0.000 in 499.00 W/m2
14:04 85.0 °F 73.0 °F 29.9 in SSW 3 mph 5 mph 67% 0.000 in 466.00 W/m2
14:09 85.0 °F 73.0 °F 29.9 in South 7 mph 7 mph 67% 0.000 in 466.00 W/m2
14:14 85.0 °F 73.0 °F 29.9 in South 6 mph 6 mph 67% 0.000 in 290.00 W/m2
14:19 85.0 °F 72.0 °F 29.9 in South 6 mph 6 mph 66% 0.000 in 274.00 W/m2
14:24 85.0 °F 72.0 °F 29.9 in South 4 mph 4 mph 67% 0.000 in 353.00 W/m2
14:29 85.0 °F 74.0 °F 29.9 in SW 5 mph 5 mph 68% 0.000 in 1037.00 W/m2
14:34 86.0 °F 74.0 °F 29.9 in SSW 2 mph 4 mph 68% 0.000 in 1037.00 W/m2
14:44 87.0 °F 75.0 °F 29.9 in SSE 6 mph 7 mph 68% 0.000 in 1002.00 W/m2
14:49 87.0 °F 73.0 °F 29.9 in SSE 9 mph 9 mph 65% 0.000 in 833.00 W/m2
14:54 86.0 °F 73.0 °F 29.9 in SSE 6 mph 9 mph 65% 0.000 in 872.00 W/m2
14:59 86.0 °F 73.0 °F 29.9 in SSE 7 mph 7 mph 66% 0.000 in 875.00 W/m2
15:04 87.0 °F 74.0 °F 29.9 in SSE 5 mph 7 mph 66% 0.000 in 854.00 W/m2
15:09 88.0 °F 74.0 °F 29.9 in SSE 7 mph 9 mph 64% 0.000 in 874.00 W/m2
15:14 88.0 °F 74.0 °F 29.9 in SSE 13 mph 13 mph 63% 0.000 in 874.00 W/m2
15:24 89.0 °F 73.0 °F 29.9 in South 7 mph 7 mph 61% 0.000 in 872.00 W/m2
15:29 88.0 °F 73.0 °F 29.9 in South 6 mph 6 mph 61% 0.000 in 320.00 W/m2
15:34 88.0 °F 73.0 °F 29.9 in SSE 7 mph 8 mph 62% 0.000 in 896.00 W/m2
15:44 88.0 °F 73.0 °F 29.9 in SSE 8 mph 8 mph 61% 0.000 in 271.00 W/m2
15:49 87.0 °F 73.0 °F 29.9 in South 7 mph 7 mph 62% 0.000 in 274.00 W/m2
15:54 87.0 °F 73.0 °F 29.9 in SSW 6 mph 7 mph 62% 0.000 in 267.00 W/m2
15:59 88.0 °F 75.0 °F 29.9 in South 4 mph 6 mph 64% 0.000 in 788.00 W/m2
16:04 89.0 °F 75.0 °F 29.9 in South 5 mph 5 mph 64% 0.000 in 788.00 W/m2
16:09 89.0 °F 74.0 °F 29.9 in South 6 mph 7 mph 61% 0.000 in 775.00 W/m2
16:14 89.0 °F 74.0 °F 29.9 in South 6 mph 6 mph 61% 0.000 in 775.00 W/m2
16:19 89.0 °F 73.0 °F 29.9 in SSE 6 mph 7 mph 61% 0.000 in 647.00 W/m2
16:24 89.0 °F 73.0 °F 29.9 in South 4 mph 7 mph 61% 0.000 in 708.00 W/m2
16:29 89.0 °F 74.0 °F 29.9 in SSE 10 mph 11 mph 61% 0.000 in 700.00 W/m2
16:34 89.0 °F 74.0 °F 29.9 in SSE 9 mph 11 mph 61% 0.000 in 666.00 W/m2
16:39 89.0 °F 74.0 °F 29.9 in SSE 7 mph 9 mph 61% 0.000 in 610.00 W/m2
16:44 89.0 °F 73.0 °F 29.9 in South 5 mph 6 mph 59% 0.000 in 234.00 W/m2
16:49 89.0 °F 74.0 °F 29.9 in South 5 mph 6 mph 61% 0.000 in 594.00 W/m2
16:54 89.0 °F 74.0 °F 29.9 in South 5 mph 6 mph 61% 0.000 in 603.00 W/m2
16:59 89.0 °F 73.0 °F 29.9 in South 11 mph 11 mph 60% 0.000 in 584.00 W/m2
17:04 89.0 °F 73.0 °F 29.9 in South 10 mph 10 mph 59% 0.000 in 179.00 W/m2
17:09 89.0 °F 73.0 °F 29.9 in South 9 mph 10 mph 59% 0.000 in 134.00 W/m2
17:14 89.0 °F 72.0 °F 29.9 in South 10 mph 10 mph 59% 0.000 in 163.00 W/m2
17:19 88.0 °F 73.0 °F 29.9 in South 5 mph 7 mph 61% 0.000 in 267.00 W/m2
17:24 88.0 °F 73.0 °F 29.9 in SSW 7 mph 7 mph 62% 0.000 in 455.00 W/m2
17:29 88.0 °F 73.0 °F 29.9 in South 6 mph 6 mph 62% 0.000 in 455.00 W/m2
17:34 88.0 °F 73.0 °F 29.9 in SSE 8 mph 12 mph 63% 0.000 in 232.00 W/m2
17:39 88.0 °F 73.0 °F 29.9 in South 10 mph 12 mph 63% 0.000 in 202.00 W/m2
17:44 87.0 °F 73.0 °F 29.9 in SSE 7 mph 10 mph 63% 0.000 in 91.00 W/m2
17:49 87.0 °F 74.0 °F 29.9 in South 7 mph 8 mph 64% 0.000 in 84.00 W/m2
17:54 87.0 °F 73.0 °F 29.9 in South 6 mph 8 mph 64% 0.000 in 93.00 W/m2
17:59 87.0 °F 74.0 °F 29.9 in SSE 8 mph 8 mph 66% 0.000 in 98.00 W/m2
18:04 86.0 °F 74.0 °F 29.9 in SSE 8 mph 8 mph 66% 0.000 in 81.00 W/m2
18:09 86.0 °F 74.0 °F 29.9 in SSE 10 mph 10 mph 67% 0.000 in 146.00 W/m2
18:14 86.0 °F 74.0 °F 29.9 in SE 10 mph 10 mph 67% 0.000 in 120.00 W/m2
18:19 86.0 °F 74.0 °F 29.9 in SSE 7 mph 8 mph 68% 0.000 in 84.00 W/m2
18:24 85.0 °F 74.0 °F 29.9 in SSE 8 mph 8 mph 68% 0.000 in 104.00 W/m2
18:29 85.0 °F 73.0 °F 29.9 in SSE 7 mph 8 mph 68% 0.000 in 102.00 W/m2
18:34 85.0 °F 73.0 °F 29.9 in SSE 6 mph 6 mph 68% 0.000 in 74.00 W/m2
18:39 85.0 °F 73.0 °F 29.9 in SSE 3 mph 6 mph 69% 0.000 in 28.00 W/m2
18:44 85.0 °F 73.0 °F 29.9 in South 4 mph 6 mph 69% 0.000 in 25.00 W/m2
18:49 84.0 °F 73.0 °F 29.9 in South 5 mph 6 mph 69% 0.000 in 21.00 W/m2
18:54 84.0 °F 73.0 °F 29.9 in South 4 mph 5 mph 69% 0.000 in 16.00 W/m2
19:04 84.0 °F 73.0 °F 29.9 in South 6 mph 6 mph 70% 0.000 in 14.00 W/m2
19:09 84.0 °F 73.0 °F 29.9 in SSW 4 mph 6 mph 70% 0.000 in 16.00 W/m2
19:14 84.0 °F 73.0 °F 29.9 in South 3 mph 4 mph 70% 0.000 in 14.00 W/m2
19:19 83.0 °F 72.0 °F 29.9 in SSW 4 mph 5 mph 70% 0.000 in 18.00 W/m2
19:24 83.0 °F 72.0 °F 29.9 in South 8 mph 8 mph 70% 0.000 in 28.00 W/m2
19:29 83.0 °F 72.0 °F 29.9 in South 5 mph 10 mph 71% 0.000 in 33.00 W/m2
19:34 83.0 °F 72.0 °F 29.9 in South 4 mph 7 mph 71% 0.000 in 37.00 W/m2
19:39 83.0 °F 72.0 °F 29.9 in South 4 mph 4 mph 71% 0.000 in 39.00 W/m2
19:44 83.0 °F 72.0 °F 29.9 in South 4 mph 4 mph 71% 0.000 in 39.00 W/m2
19:49 83.0 °F 72.0 °F 29.9 in South 6 mph 6 mph 71% 0.000 in 32.00 W/m2
19:54 82.0 °F 72.0 °F 29.9 in South 4 mph 6 mph 71% 0.000 in 9.00 W/m2
19:59 82.0 °F 72.0 °F 29.9 in South 3 mph 3 mph 72% 0.000 in 0.00 W/m2
20:04 82.0 °F 72.0 °F 29.9 in South 3 mph 5 mph 72% 0.000 in 0.00 W/m2
20:09 82.0 °F 72.0 °F 29.9 in South 2 mph 3 mph 72% 0.000 in 0.00 W/m2
20:14 82.0 °F 72.0 °F 29.9 in South 2 mph 3 mph 72% 0.000 in 0.00 W/m2
20:19 82.0 °F 72.0 °F 29.9 in South 4 mph 5 mph 72% 0.000 in 0.00 W/m2
20:24 81.0 °F 71.0 °F 29.9 in South 4 mph 5 mph 72% 0.000 in 0.00 W/m2
20:29 81.0 °F 72.0 °F 29.9 in South 2 mph 4 mph 73% 0.000 in 0.00 W/m2
20:34 81.0 °F 72.0 °F 29.9 in South 4 mph 5 mph 73% 0.000 in 0.00 W/m2
20:39 81.0 °F 71.0 °F 29.9 in South 4 mph 4 mph 73% 0.000 in 0.00 W/m2
20:44 81.0 °F 71.0 °F 29.9 in South 2 mph 2 mph 73% 0.000 in 0.00 W/m2
20:49 81.0 °F 71.0 °F 29.9 in South 2 mph 3 mph 73% 0.000 in 0.00 W/m2
20:54 80.0 °F 71.0 °F 29.9 in South 1 mph 1 mph 73% 0.000 in 0.00 W/m2
20:59 80.0 °F 71.0 °F 29.9 in South 1 mph 2 mph 74% 0.000 in 0.00 W/m2
21:04 80.0 °F 71.0 °F 29.9 in South 1 mph 1 mph 74% 0.000 in 0.00 W/m2
21:09 80.0 °F 71.0 °F 29.9 in South 1 mph 1 mph 74% 0.000 in 0.00 W/m2
21:14 80.0 °F 71.0 °F 29.9 in South 1 mph 1 mph 74% 0.000 in 0.00 W/m2
21:19 80.0 °F 71.0 °F 29.9 in South 1 mph 2 mph 74% 0.000 in 0.00 W/m2
21:24 80.0 °F 71.0 °F 29.9 in South 1 mph 2 mph 74% 0.000 in 0.00 W/m2
21:29 80.0 °F 71.0 °F 29.9 in South 1 mph 2 mph 75% 0.000 in 0.00 W/m2
21:34 79.0 °F 71.0 °F 29.9 in South 1 mph 2 mph 75% 0.000 in 0.00 W/m2
21:39 79.0 °F 71.0 °F 29.9 in South 2 mph 2 mph 75% 0.000 in 0.00 W/m2
21:44 79.0 °F 70.0 °F 29.9 in South 2 mph 2 mph 75% 0.000 in 0.00 W/m2
21:49 79.0 °F 71.0 °F 29.9 in SW 4 mph 5 mph 76% 0.000 in 0.00 W/m2
21:54 79.0 °F 70.0 °F 29.9 in SW 2 mph 4 mph 76% 0.000 in 0.00 W/m2
21:59 78.0 °F 70.0 °F 29.9 in SW 3 mph 3 mph 76% 0.000 in 0.00 W/m2
22:04 78.0 °F 71.0 °F 29.9 in SW 3 mph 3 mph 77% 0.000 in 0.00 W/m2
22:09 78.0 °F 71.0 °F 29.9 in SW 2 mph 2 mph 77% 0.000 in 0.00 W/m2
22:14 78.0 °F 70.0 °F 30.0 in Calm   2 mph 77% 0.000 in 0.00 W/m2
22:19 78.0 °F 70.0 °F 30.0 in SW 1 mph 1 mph 77% 0.000 in 0.00 W/m2
22:24 78.0 °F 70.0 °F 30.0 in Calm   1 mph 77% 0.000 in 0.00 W/m2
22:29 78.0 °F 70.0 °F 30.0 in SW 1 mph 1 mph 77% 0.000 in 0.00 W/m2
22:34 78.0 °F 70.0 °F 30.0 in SW 1 mph 2 mph 77% 0.000 in 0.00 W/m2
22:39 78.0 °F 70.0 °F 30.0 in SW 1 mph 2 mph 78% 0.000 in 0.00 W/m2
22:44 78.0 °F 70.0 °F 30.0 in SW 3 mph 4 mph 78% 0.000 in 0.00 W/m2
22:49 78.0 °F 70.0 °F 30.0 in WSW 4 mph 4 mph 78% 0.000 in 0.00 W/m2
22:54 77.0 °F 70.0 °F 30.0 in WSW 3 mph 3 mph 78% 0.000 in 0.00 W/m2
22:59 77.0 °F 70.0 °F 30.0 in West 2 mph 3 mph 78% 0.000 in 0.00 W/m2
23:04 77.0 °F 70.0 °F 30.0 in West 3 mph 3 mph 78% 0.000 in 0.00 W/m2
23:09 77.0 °F 70.0 °F 30.0 in West 2 mph 2 mph 78% 0.000 in 0.00 W/m2
23:14 77.0 °F 70.0 °F 30.0 in WNW 3 mph 3 mph 78% 0.000 in 0.00 W/m2
23:19 77.0 °F 70.0 °F 30.0 in NW 4 mph 4 mph 78% 0.000 in 0.00 W/m2
23:24 77.0 °F 70.0 °F 30.0 in NW 3 mph 4 mph 79% 0.000 in 0.00 W/m2
23:29 77.0 °F 70.0 °F 30.0 in WNW 3 mph 4 mph 79% 0.000 in 0.00 W/m2
23:34 77.0 °F 70.0 °F 30.0 in WNW 7 mph 7 mph 79% 0.000 in 0.00 W/m2
23:39 77.0 °F 71.0 °F 30.0 in WNW 4 mph 7 mph 80% 0.000 in 0.00 W/m2
23:44 77.0 °F 71.0 °F 30.0 in West 4 mph 6 mph 80% 0.000 in 0.00 W/m2
23:49 77.0 °F 71.0 °F 30.0 in NW 4 mph 4 mph 80% 0.000 in 0.00 W/m2
23:54 77.0 °F 71.0 °F 30.0 in NW 3 mph 3 mph 80% 0.000 in 0.00 W/m2
23:59 77.0 °F 71.0 °F 30.0 in NW 2 mph 3 mph 80% 0.000 in 0.00 W/m2
Villages of Bridgestone, Spring, TX USA
Compliments of Weather Underground - 4 mb